Terminal Aerodrome Forecast
Issued by NWS

Current Version | Previous Version | Text Only | Print | Product List | Glossary On
Versions: 1 2 3 4 5 6 7 8 9 10 11 12
000
FTUS42 TJSJ 231700
TAFIST
TAF
TIST 231739Z 2318/2418 14012KT P6SM FEW025 SCT040
     FM232300 10007KT P6SM FEW030 PROB30 2406/2410 -SHRA BKN025
     FM241330 14012KT P6SM SCT030 SCT050=

USA.gov is the U.S. government's official web portal to all federal, state and local government web resources and services.